createdAt,value
2019-02-27T00:01:24.472Z,69.80
2019-02-27T00:03:52.570Z,70.33
2019-02-27T00:06:20.448Z,69.40
2019-02-27T00:08:48.440Z,67.47
2019-02-27T00:11:16.505Z,67.87
2019-02-27T00:13:44.505Z,69.07
2019-02-27T00:16:12.532Z,68.77
2019-02-27T00:18:40.513Z,68.67
2019-02-27T00:21:11.037Z,71.23
2019-02-27T00:23:38.138Z,71.47
2019-02-27T00:26:08.737Z,67.67
2019-02-27T00:28:35.879Z,69.07
2019-02-27T00:31:04.253Z,70.83
2019-02-27T00:33:33.233Z,67.90
2019-02-27T00:36:01.197Z,68.30
2019-02-27T00:38:29.574Z,67.97
2019-02-27T00:40:57.543Z,69.67
2019-02-27T00:43:25.962Z,72.20
2019-02-27T00:45:55.168Z,68.70
2019-02-27T00:48:26.018Z,68.30
2019-02-27T00:50:52.915Z,69.23
2019-02-27T00:53:21.923Z,68.23
2019-02-27T00:55:50.562Z,68.37
2019-02-27T00:58:18.494Z,71.70
2019-02-27T01:00:46.612Z,68.17
2019-02-27T01:03:14.525Z,67.67
2019-02-27T01:05:42.647Z,68.10
2019-02-27T01:08:10.643Z,67.87
2019-02-27T01:10:38.725Z,68.70
2019-02-27T01:13:07.137Z,69.37
2019-02-27T01:15:35.166Z,67.97
2019-02-27T01:18:23.795Z,68.27
2019-02-27T01:20:51.673Z,73.70
2019-02-27T01:23:19.679Z,68.17
2019-02-27T01:25:47.624Z,70.30
2019-02-27T01:28:15.699Z,71.67
2019-02-27T01:30:43.789Z,70.47
2019-02-27T01:33:11.899Z,70.47
2019-02-27T01:35:39.905Z,67.27
2019-02-27T01:38:07.875Z,70.63
2019-02-27T01:40:35.853Z,68.50
2019-02-27T01:43:06.250Z,70.70
2019-02-27T01:45:33.534Z,68.80
2019-02-27T01:48:01.501Z,68.97
2019-02-27T01:50:30.425Z,71.30
2019-02-27T01:52:58.573Z,68.23
2019-02-27T01:55:26.623Z,67.67
2019-02-27T01:57:54.615Z,68.77
2019-02-27T02:00:23.275Z,69.33
2019-02-27T02:02:51.872Z,67.10
2019-02-27T02:05:19.936Z,70.50
2019-02-27T02:07:48.101Z,67.27
2019-02-27T02:10:16.071Z,69.53
2019-02-27T02:12:44.685Z,68.50
2019-02-27T02:15:15.439Z,67.83
2019-02-27T02:18:02.462Z,70.53
2019-02-27T02:20:41.279Z,70.90
2019-02-27T02:23:28.401Z,68.37
2019-02-27T02:26:01.360Z,68.87
2019-02-27T02:28:37.327Z,70.67
2019-02-27T02:31:23.458Z,68.27
2019-02-27T02:34:22.535Z,68.40
2019-02-27T02:37:09.601Z,74.20
2019-02-27T02:40:02.904Z,68.70
2019-02-27T02:42:33.743Z,67.43
2019-02-27T02:45:32.793Z,71.00
2019-02-27T02:48:11.560Z,71.57
2019-02-27T02:50:56.107Z,66.80
2019-02-27T02:53:48.543Z,67.60
2019-02-27T02:56:24.791Z,70.93
2019-02-27T02:59:16.961Z,75.80
2019-02-27T03:02:07.097Z,68.90
2019-02-27T03:04:54.206Z,67.30
2019-02-27T03:07:44.429Z,67.20
2019-02-27T03:10:30.011Z,68.17
2019-02-27T03:13:17.087Z,70.13
2019-02-27T03:15:47.668Z,67.73
2019-02-27T03:18:46.908Z,67.27
2019-02-27T03:21:30.961Z,67.60
2019-02-27T03:24:12.197Z,71.20
2019-02-27T03:26:58.850Z,70.00
2019-02-27T03:29:36.713Z,71.60
2019-02-27T03:32:10.752Z,70.47
2019-02-27T03:35:00.628Z,66.97
2019-02-27T03:37:31.558Z,70.73
2019-02-27T03:40:17.591Z,67.50
2019-02-27T03:43:10.449Z,67.37
2019-02-27T03:46:06.208Z,68.13
2019-02-27T03:48:55.111Z,67.07
2019-02-27T03:51:42.216Z,67.60
2019-02-27T03:54:28.061Z,68.97
2019-02-27T03:57:18.786Z,66.50
2019-02-27T03:59:58.941Z,66.87
2019-02-27T04:02:47.981Z,70.67
2019-02-27T04:05:33.659Z,67.77
2019-02-27T04:08:26.447Z,69.47
2019-02-27T04:10:54.441Z,67.10
2019-02-27T04:13:26.410Z,68.37
2019-02-27T04:15:53.821Z,68.30
2019-02-27T04:18:20.875Z,67.57
2019-02-27T04:20:50.848Z,67.97
2019-02-27T04:23:18.538Z,66.37
2019-02-27T04:25:46.601Z,67.80
2019-02-27T04:28:14.881Z,72.40
2019-02-27T04:30:42.835Z,70.10
2019-02-27T04:33:10.809Z,68.57
2019-02-27T04:35:39.679Z,69.10
2019-02-27T04:38:08.188Z,67.63
2019-02-27T04:40:36.142Z,66.80
2019-02-27T04:43:04.144Z,68.60
2019-02-27T04:45:32.079Z,74.00
2019-02-27T04:48:00.084Z,72.10
2019-02-27T04:50:28.061Z,70.83
2019-02-27T04:52:58.034Z,68.93
2019-02-27T04:55:25.825Z,68.87
2019-02-27T04:57:53.882Z,70.50
2019-02-27T05:00:26.041Z,70.50
2019-02-27T05:02:53.540Z,71.67
2019-02-27T05:05:21.164Z,72.03
2019-02-27T05:07:49.169Z,68.40
2019-02-27T05:10:17.211Z,74.00
2019-02-27T05:12:47.966Z,71.90
2019-02-27T05:15:15.300Z,70.67
2019-02-27T05:17:43.299Z,68.00
2019-02-27T05:20:12.463Z,68.43
2019-02-27T05:22:40.624Z,67.73
2019-02-27T05:25:09.037Z,68.20
2019-02-27T05:27:37.080Z,69.77
2019-02-27T05:30:05.275Z,68.00
2019-02-27T05:32:33.232Z,70.17
2019-02-27T05:35:01.183Z,74.70
2019-02-27T05:37:29.080Z,70.03
2019-02-27T05:39:57.028Z,68.83
2019-02-27T05:42:25.018Z,67.27
2019-02-27T05:44:55.589Z,66.87
2019-02-27T05:47:22.591Z,67.80
2019-02-27T05:49:50.582Z,70.50
2019-02-27T05:52:18.500Z,67.80
2019-02-27T05:54:46.396Z,71.23
2019-02-27T05:57:14.371Z,69.37
2019-02-27T05:59:42.336Z,69.30
2019-02-27T06:02:10.899Z,68.40
2019-02-27T06:04:39.507Z,68.63
2019-02-27T06:07:07.452Z,67.63
2019-02-27T06:09:35.444Z,68.77
2019-02-27T06:12:06.542Z,76.33
2019-02-27T06:14:32.997Z,72.27
2019-02-27T06:17:02.029Z,76.43
2019-02-27T06:19:33.323Z,77.07
2019-02-27T06:21:59.688Z,73.93
2019-02-27T06:24:27.657Z,77.93
2019-02-27T06:26:55.625Z,76.20
2019-02-27T06:29:24.168Z,81.87
2019-02-27T06:31:52.213Z,80.53
2019-02-27T06:34:22.330Z,72.77
2019-02-27T06:36:49.748Z,76.93
2019-02-27T06:39:17.763Z,80.80
2019-02-27T06:41:47.391Z,73.63
2019-02-27T06:44:15.309Z,75.67
2019-02-27T06:46:44.572Z,85.40
2019-02-27T06:49:17.531Z,75.27
2019-02-27T06:51:42.255Z,73.90
2019-02-27T06:54:10.251Z,74.60
2019-02-27T06:56:38.190Z,72.83
2019-02-27T06:59:06.224Z,80.27
2019-02-27T07:01:34.307Z,81.57
2019-02-27T07:04:04.768Z,85.20
2019-02-27T07:06:32.037Z,77.70
2019-02-27T07:09:00.028Z,74.70
2019-02-27T07:11:27.979Z,82.40
2019-02-27T07:13:56.043Z,81.00
2019-02-27T07:16:24.016Z,75.37
2019-02-27T07:18:52.075Z,80.90
2019-02-27T07:21:20.066Z,81.90
2019-02-27T07:23:48.117Z,74.10
2019-02-27T07:26:16.593Z,80.20
2019-02-27T07:28:44.664Z,78.87
2019-02-27T07:31:17.174Z,72.80
2019-02-27T07:33:42.281Z,79.83
2019-02-27T07:36:10.243Z,89.13
2019-02-27T07:38:38.311Z,77.27
2019-02-27T07:41:06.249Z,74.33
2019-02-27T07:43:34.252Z,75.70
2019-02-27T07:46:02.192Z,74.10
2019-02-27T07:48:30.220Z,72.50
2019-02-27T07:50:58.325Z,72.37
2019-02-27T07:53:26.196Z,73.43
2019-02-27T07:55:54.200Z,74.50
2019-02-27T07:58:22.240Z,72.60
2019-02-27T08:00:50.526Z,74.13
2019-02-27T08:03:18.800Z,71.90
2019-02-27T08:05:46.770Z,71.60
2019-02-27T08:08:14.740Z,71.70
2019-02-27T08:10:42.721Z,73.00
2019-02-27T08:13:10.732Z,77.87
2019-02-27T08:15:38.892Z,71.30
2019-02-27T08:18:06.967Z,73.60
2019-02-27T08:20:35.266Z,77.00
2019-02-27T08:23:03.293Z,76.40
2019-02-27T08:25:31.289Z,75.10
2019-02-27T08:27:59.217Z,73.50
2019-02-27T08:30:27.179Z,80.00
2019-02-27T08:32:55.182Z,76.00
2019-02-27T08:35:23.233Z,77.23
2019-02-27T08:37:51.160Z,75.27
2019-02-27T08:40:19.117Z,74.30
2019-02-27T08:42:47.200Z,78.27
2019-02-27T08:45:19.610Z,75.43
2019-02-27T08:47:44.756Z,76.90
2019-02-27T08:50:13.931Z,75.57
2019-02-27T08:52:44.203Z,75.37
2019-02-27T08:55:18.728Z,73.90
2019-02-27T08:57:41.835Z,76.00
2019-02-27T09:00:14.199Z,74.80
2019-02-27T09:02:41.291Z,83.50
2019-02-27T09:05:09.390Z,77.03
2019-02-27T09:07:37.355Z,75.07
2019-02-27T09:10:05.420Z,78.20
2019-02-27T09:12:33.344Z,75.03
2019-02-27T09:15:01.225Z,74.70
2019-02-27T09:17:29.245Z,75.90
2019-02-27T09:19:57.463Z,77.07
2019-02-27T09:22:25.464Z,83.67
2019-02-27T09:24:53.402Z,74.80
2019-02-27T09:27:21.468Z,74.13
2019-02-27T09:29:49.474Z,75.47
2019-02-27T09:32:20.412Z,75.10
2019-02-27T09:34:48.412Z,75.23
2019-02-27T09:37:17.737Z,76.87
2019-02-27T09:39:45.769Z,78.43
2019-02-27T09:42:13.768Z,82.27
2019-02-27T09:44:41.666Z,76.90
2019-02-27T09:47:09.719Z,74.70
2019-02-27T09:49:37.957Z,74.80
2019-02-27T09:52:07.356Z,77.87
2019-02-27T09:54:35.334Z,75.73
2019-02-27T09:57:03.256Z,75.57
2019-02-27T09:59:31.221Z,76.70
2019-02-27T10:01:59.281Z,76.27
2019-02-27T10:04:28.815Z,77.30
2019-02-27T10:06:57.000Z,73.30
2019-02-27T10:09:25.009Z,72.27
2019-02-27T10:11:53.274Z,79.40
2019-02-27T10:14:21.332Z,75.63
2019-02-27T10:16:49.206Z,75.93
2019-02-27T10:19:17.265Z,78.97
2019-02-27T10:21:45.352Z,79.20
2019-02-27T10:24:13.270Z,75.47
2019-02-27T10:26:41.265Z,78.07
2019-02-27T10:29:10.941Z,75.23
2019-02-27T10:31:38.982Z,75.77
2019-02-27T10:34:06.963Z,78.20
2019-02-27T10:36:38.170Z,76.80
2019-02-27T10:39:06.052Z,76.00
2019-02-27T10:41:33.946Z,82.23
2019-02-27T10:44:02.026Z,75.93
2019-02-27T10:46:29.988Z,76.37
2019-02-27T10:48:57.859Z,80.20
2019-02-27T10:51:25.919Z,77.57
2019-02-27T10:53:53.887Z,84.80
2019-02-27T10:56:24.283Z,83.00
2019-02-27T10:58:51.517Z,77.17
2019-02-27T11:01:19.559Z,79.40
2019-02-27T11:03:47.529Z,80.00
2019-02-27T11:06:15.500Z,80.60
2019-02-27T11:08:43.544Z,78.17
2019-02-27T11:11:13.179Z,78.80
2019-02-27T11:13:41.077Z,77.97
2019-02-27T11:16:09.123Z,78.97
2019-02-27T11:18:37.181Z,80.87
2019-02-27T11:21:05.311Z,77.53
2019-02-27T11:23:35.981Z,80.33
2019-02-27T11:26:03.945Z,83.87
2019-02-27T11:28:31.894Z,78.90
2019-02-27T11:30:59.883Z,83.67
2019-02-27T11:33:32.712Z,82.70
2019-02-27T11:35:57.378Z,74.00
2019-02-27T11:38:25.501Z,75.13
2019-02-27T11:40:53.423Z,81.33
2019-02-27T11:43:21.323Z,77.87
2019-02-27T11:45:49.295Z,75.97
2019-02-27T11:48:17.165Z,91.90
2019-02-27T11:50:45.193Z,77.37
2019-02-27T11:53:13.148Z,75.50
2019-02-27T11:55:41.117Z,79.90
2019-02-27T11:58:09.152Z,76.70
2019-02-27T12:00:37.059Z,79.43
2019-02-27T12:03:05.031Z,82.07
2019-02-27T12:05:34.419Z,81.57
2019-02-27T12:08:02.462Z,88.07
2019-02-27T12:10:30.894Z,81.93
2019-02-27T12:13:00.736Z,80.33
2019-02-27T12:15:28.581Z,77.37
2019-02-27T12:17:59.872Z,79.07
2019-02-27T12:20:26.308Z,78.07
2019-02-27T12:22:54.280Z,81.67
2019-02-27T12:25:26.901Z,75.67
2019-02-27T12:27:56.356Z,81.43
2019-02-27T12:30:24.546Z,76.70
2019-02-27T12:32:55.705Z,78.47
2019-02-27T12:35:23.144Z,75.10
2019-02-27T12:37:51.052Z,76.80
2019-02-27T12:40:23.917Z,75.40
2019-02-27T12:42:50.190Z,78.77
2019-02-27T12:45:18.904Z,77.37
2019-02-27T12:47:46.844Z,82.13
2019-02-27T12:50:15.673Z,77.83
2019-02-27T12:52:44.543Z,82.23
2019-02-27T12:55:13.665Z,75.37
2019-02-27T12:57:41.580Z,82.60
2019-02-27T13:00:10.735Z,75.63
2019-02-27T13:02:38.725Z,77.77
2019-02-27T13:05:07.518Z,79.03
2019-02-27T13:07:35.504Z,75.60
2019-02-27T13:10:03.699Z,77.63
2019-02-27T13:12:31.690Z,79.60
2019-02-27T13:14:59.672Z,74.20
2019-02-27T13:17:27.647Z,80.03
2019-02-27T13:19:55.627Z,77.23
2019-02-27T13:22:26.301Z,75.80
2019-02-27T13:24:53.134Z,81.97
2019-02-27T13:27:21.010Z,79.67
2019-02-27T13:29:49.060Z,83.10
2019-02-27T13:32:16.949Z,78.53
2019-02-27T13:34:45.327Z,78.77
2019-02-27T13:37:14.566Z,76.63
2019-02-27T13:39:42.441Z,76.20
2019-02-27T13:42:10.433Z,78.00
2019-02-27T13:44:38.923Z,75.80
2019-02-27T13:47:07.150Z,77.77
2019-02-27T13:49:35.099Z,78.67
2019-02-27T13:52:03.527Z,77.50
2019-02-27T13:54:34.892Z,78.73
2019-02-27T13:57:01.183Z,79.27
2019-02-27T13:59:29.161Z,78.43
2019-02-27T14:01:57.220Z,84.80
2019-02-27T14:04:25.471Z,76.63
2019-02-27T14:06:53.527Z,77.10
2019-02-27T14:09:21.587Z,79.13
2019-02-27T14:11:49.599Z,76.90
2019-02-27T14:14:18.375Z,75.27
2019-02-27T14:16:46.633Z,74.90
2019-02-27T14:19:14.569Z,78.70
2019-02-27T14:21:42.648Z,77.57
2019-02-27T14:24:10.635Z,78.73
2019-02-27T14:26:41.467Z,76.50
2019-02-27T14:29:08.424Z,75.10
2019-02-27T14:31:36.348Z,77.87
2019-02-27T14:34:04.354Z,76.00
2019-02-27T14:36:32.375Z,74.53
2019-02-27T14:39:00.259Z,75.57
2019-02-27T14:41:28.217Z,72.87
2019-02-27T14:43:57.631Z,74.47
2019-02-27T14:46:25.848Z,73.90
2019-02-27T14:48:53.945Z,75.20
2019-02-27T14:51:21.932Z,72.70
2019-02-27T14:53:52.679Z,76.67
2019-02-27T14:56:19.751Z,79.40
2019-02-27T14:58:47.709Z,73.97
2019-02-27T15:01:15.711Z,81.10
2019-02-27T15:03:44.287Z,76.63
2019-02-27T15:06:12.336Z,78.40
2019-02-27T15:08:40.320Z,73.70
2019-02-27T15:11:08.586Z,74.83
2019-02-27T15:13:36.633Z,74.80
2019-02-27T15:16:04.643Z,75.03
2019-02-27T15:18:32.535Z,72.27
2019-02-27T15:21:00.468Z,77.57
2019-02-27T15:23:28.405Z,75.57
2019-02-27T15:25:56.314Z,75.40
2019-02-27T15:28:24.279Z,74.50
2019-02-27T15:30:52.172Z,73.10
2019-02-27T15:33:20.150Z,76.03
2019-02-27T15:35:48.087Z,72.10
2019-02-27T15:38:16.315Z,78.77
2019-02-27T15:40:44.385Z,70.97
2019-02-27T15:43:16.762Z,72.67
2019-02-27T15:45:47.994Z,73.27
2019-02-27T15:48:11.959Z,74.80
2019-02-27T15:50:39.944Z,74.00
2019-02-27T15:53:07.900Z,79.37
2019-02-27T15:55:37.867Z,75.00
2019-02-27T15:58:05.500Z,79.87
2019-02-27T16:00:33.453Z,74.63
2019-02-27T16:03:01.492Z,74.97
2019-02-27T16:05:31.407Z,76.90
2019-02-27T16:07:59.707Z,74.10
2019-02-27T16:10:27.680Z,81.53
2019-02-27T16:12:59.975Z,77.63
2019-02-27T16:15:25.644Z,72.80
2019-02-27T16:17:53.639Z,72.63
2019-02-27T16:20:21.692Z,73.10
2019-02-27T16:22:49.706Z,72.97
2019-02-27T16:25:19.901Z,73.87
2019-02-27T16:27:48.170Z,79.00
2019-02-27T16:30:17.412Z,74.27
2019-02-27T16:32:48.472Z,72.50
2019-02-27T16:35:15.171Z,74.57
2019-02-27T16:37:43.110Z,78.80
2019-02-27T16:40:11.428Z,79.60
2019-02-27T16:42:39.762Z,81.43
2019-02-27T16:45:09.358Z,74.33
2019-02-27T16:47:37.436Z,75.00
2019-02-27T16:50:05.577Z,77.00
2019-02-27T16:52:33.492Z,76.30
2019-02-27T16:55:02.528Z,77.37
2019-02-27T16:57:31.058Z,74.27
2019-02-27T16:59:59.055Z,74.00
2019-02-27T17:02:27.086Z,74.37
2019-02-27T17:04:55.122Z,73.67
2019-02-27T17:07:25.685Z,76.87
2019-02-27T17:09:52.867Z,73.67
2019-02-27T17:12:20.907Z,78.60
2019-02-27T17:14:49.078Z,74.30
2019-02-27T17:17:18.819Z,75.50
2019-02-27T17:19:46.861Z,73.97
2019-02-27T17:22:14.869Z,74.63
2019-02-27T17:24:42.944Z,77.40
2019-02-27T17:27:12.975Z,78.50
2019-02-27T17:29:40.744Z,80.20
2019-02-27T17:32:08.770Z,74.27
2019-02-27T17:34:37.092Z,79.80
2019-02-27T17:37:06.357Z,72.70
2019-02-27T17:39:34.820Z,75.77
2019-02-27T17:42:02.821Z,74.37
2019-02-27T17:44:30.895Z,76.03
2019-02-27T17:46:58.990Z,76.20
2019-02-27T17:49:27.929Z,76.20
2019-02-27T17:51:56.246Z,78.80
2019-02-27T17:54:24.388Z,78.33
2019-02-27T17:56:52.372Z,78.67
2019-02-27T17:59:20.550Z,75.50
2019-02-27T18:01:48.613Z,90.83
2019-02-27T18:04:16.667Z,74.67
2019-02-27T18:06:44.673Z,78.30
2019-02-27T18:09:13.098Z,75.63
2019-02-27T18:11:41.351Z,79.80
2019-02-27T18:14:10.171Z,80.00
2019-02-27T18:16:38.292Z,75.37
2019-02-27T18:19:06.426Z,76.00
2019-02-27T18:21:34.648Z,75.50
2019-02-27T18:24:02.677Z,77.83
2019-02-27T18:26:30.681Z,78.83
2019-02-27T18:28:58.724Z,76.50
2019-02-27T18:31:27.417Z,78.33
2019-02-27T18:33:55.492Z,76.20
2019-02-27T18:36:23.555Z,76.63
2019-02-27T18:38:51.642Z,83.00
2019-02-27T18:41:19.587Z,74.53
2019-02-27T18:43:47.948Z,73.93
2019-02-27T18:46:16.453Z,76.10
2019-02-27T18:48:44.637Z,79.37
2019-02-27T18:51:12.951Z,73.23
2019-02-27T18:53:40.885Z,80.00
2019-02-27T18:56:09.021Z,77.87
2019-02-27T18:58:37.860Z,75.93
2019-02-27T19:01:09.976Z,72.60
2019-02-27T19:03:37.945Z,80.20
2019-02-27T19:06:06.689Z,77.73
2019-02-27T19:08:34.786Z,78.63
2019-02-27T19:11:02.793Z,83.00
2019-02-27T19:13:32.326Z,81.50
2019-02-27T19:16:00.444Z,78.10
2019-02-27T19:18:29.548Z,80.27
2019-02-27T19:20:59.115Z,76.90
2019-02-27T19:23:27.946Z,79.83
2019-02-27T19:25:56.168Z,78.40
2019-02-27T19:28:25.719Z,78.77
2019-02-27T19:30:57.410Z,81.53
2019-02-27T19:33:28.579Z,76.10
2019-02-27T19:35:57.577Z,80.20
2019-02-27T19:38:27.426Z,78.47
2019-02-27T19:41:04.066Z,83.30
2019-02-27T19:43:35.357Z,83.47
2019-02-27T19:46:06.976Z,89.63
2019-02-27T19:48:35.224Z,78.23
2019-02-27T19:51:05.632Z,81.57
2019-02-27T19:53:34.364Z,83.60
2019-02-27T19:56:04.030Z,82.73
2019-02-27T19:58:32.618Z,84.77
2019-02-27T20:01:02.645Z,81.37
2019-02-27T20:03:34.851Z,82.40
2019-02-27T20:06:01.790Z,79.57
2019-02-27T20:08:30.467Z,83.03
2019-02-27T20:11:05.537Z,83.83
2019-02-27T20:13:30.081Z,79.70
2019-02-27T20:15:58.424Z,83.47
2019-02-27T20:18:26.562Z,82.73
2019-02-27T20:20:54.948Z,84.90
2019-02-27T20:23:25.765Z,78.70
2019-02-27T20:25:52.829Z,85.10
2019-02-27T20:28:21.134Z,77.87
2019-02-27T20:30:49.499Z,83.33
2019-02-27T20:33:17.568Z,84.67
2019-02-27T20:35:45.634Z,87.53
2019-02-27T20:38:16.137Z,77.37
2019-02-27T20:40:43.523Z,79.27
2019-02-27T20:43:11.602Z,83.17
2019-02-27T20:45:42.745Z,77.27
2019-02-27T20:48:09.877Z,86.47
2019-02-27T20:50:39.406Z,81.07
2019-02-27T20:53:07.961Z,84.33
2019-02-27T20:55:36.142Z,82.70
2019-02-27T20:58:04.809Z,76.00
2019-02-27T21:00:36.306Z,81.30
2019-02-27T21:03:03.183Z,79.40
2019-02-27T21:05:33.025Z,80.67
2019-02-27T21:08:02.785Z,93.30
2019-02-27T21:10:30.975Z,87.20
2019-02-27T21:12:59.375Z,85.27
2019-02-27T21:15:29.263Z,81.90
2019-02-27T21:17:58.677Z,80.87
2019-02-27T21:20:28.129Z,83.87
2019-02-27T21:22:56.262Z,82.37
2019-02-27T21:25:24.575Z,82.87
2019-02-27T21:27:52.932Z,78.80
2019-02-27T21:30:21.582Z,90.60
2019-02-27T21:32:49.768Z,91.43
2019-02-27T21:35:17.803Z,98.30
2019-02-27T21:37:45.876Z,86.90
2019-02-27T21:40:14.410Z,86.07
2019-02-27T21:42:42.582Z,82.60
2019-02-27T21:45:14.731Z,86.47
2019-02-27T21:47:43.255Z,86.63
2019-02-27T21:50:12.155Z,80.90
2019-02-27T21:52:40.186Z,88.37
2019-02-27T21:55:12.528Z,80.80
2019-02-27T21:57:40.159Z,82.70
2019-02-27T22:00:11.392Z,82.47
2019-02-27T22:02:38.884Z,78.83
2019-02-27T22:05:07.120Z,78.20
2019-02-27T22:07:35.140Z,88.00
2019-02-27T22:10:03.225Z,79.90
2019-02-27T22:12:32.414Z,77.80
2019-02-27T22:15:00.877Z,77.57
2019-02-27T22:17:28.905Z,75.80
2019-02-27T22:19:56.926Z,75.57
2019-02-27T22:22:25.619Z,80.10
2019-02-27T22:24:55.557Z,79.10
2019-02-27T22:27:24.983Z,77.70
2019-02-27T22:29:53.596Z,80.97
2019-02-27T22:32:22.412Z,78.77
2019-02-27T22:34:51.771Z,79.17
2019-02-27T22:37:20.311Z,84.03
2019-02-27T22:39:48.515Z,79.20
2019-02-27T22:42:16.812Z,82.13
2019-02-27T22:44:45.156Z,77.73
2019-02-27T22:47:13.975Z,78.60
2019-02-27T22:49:42.193Z,74.47
2019-02-27T22:52:10.239Z,81.80
2019-02-27T22:54:38.325Z,80.07
2019-02-27T22:57:06.318Z,79.53
2019-02-27T22:59:37.343Z,75.03
2019-02-27T23:02:04.477Z,76.60
2019-02-27T23:04:32.495Z,73.70
2019-02-27T23:07:00.574Z,73.40
2019-02-27T23:09:28.833Z,74.00
2019-02-27T23:11:56.907Z,74.30
2019-02-27T23:14:24.978Z,77.33
2019-02-27T23:16:52.951Z,78.47
2019-02-27T23:19:21.082Z,72.40
2019-02-27T23:21:49.189Z,74.93
2019-02-27T23:24:17.133Z,72.93
2019-02-27T23:26:45.125Z,73.30
2019-02-27T23:29:13.156Z,71.27
2019-02-27T23:31:41.155Z,74.80
2019-02-27T23:34:09.243Z,73.80
2019-02-27T23:36:37.320Z,76.37
2019-02-27T23:39:08.749Z,74.40
2019-02-27T23:41:36.502Z,72.10
2019-02-27T23:44:05.399Z,75.90
2019-02-27T23:46:33.979Z,74.13
2019-02-27T23:49:02.014Z,73.07
2019-02-27T23:51:30.436Z,76.60
2019-02-27T23:53:58.600Z,73.57
2019-02-27T23:56:28.106Z,73.70
2019-02-27T23:58:56.183Z,73.00
